Latest Coastal Weather Observations for Norah Head

IDN60701

Issued at 3:35 am EST Thursday 18 September 2014 (issued every 10 minutes, with the page automatically refreshed every 10 minutes)

About coastal observations | Map of coastal stations | Coastal observations for NSW | Marine services | Other Formats
Station Details ID: 061366 Name: NORAH HEAD AWS Lat: -33.28 Lon: 151.58 Height: 18.8 m
Data from the previous 72 hours. | See also: Recent months at Norah Head
Date/Time
EST
Temp

°C
Wind Pressure Rain
since 9am
mm
Weather Cloud Vis
km
Sea
Height
m
Swell
Dir
 
Speed
knots
Gust
knots
hPa Trend Height
m
Period
s
Dir
18/03:30am 11.7 W 4 5 1015.7 - 0.0 - - - - - - -
18/03:00am 12.4 W 4 5 1015.5 - 0.0 - - - - - - -
18/02:30am 13.0 W 4 6 1015.3 - 0.0 - - - - - - -
18/02:00am 13.1 W 4 7 1015.4 - 0.0 - - - - - - -
18/01:30am 13.6 W 5 6 1015.5 - 0.0 - - - - - - -
18/01:00am 14.0 W 5 10 1015.5 - 0.0 - - - - - - -
18/12:30am 13.7 W 5 8 1015.4 - 0.0 - - - - - - -
18/12:00am 13.5 W 5 8 1015.3 - 0.0 - - - - - - -
 
Date/Time
EST
Temp

°C
Wind Pressure Rain
since 9am
mm
Weather Cloud Vis
km
Sea
Height
m
Swell
Dir
 
Speed
knots
Gust
knots
hPa Trend Height
m
Period
s
Dir
17/11:30pm 13.8 W 3 5 1015.3 - 0.0 - - - - - - -
17/11:00pm 14.0 W 4 7 1015.2 - 0.0 - - - - - - -
17/10:30pm 13.3 WNW 3 4 1015.0 - 0.0 - - - - - - -
17/10:00pm 13.8 WNW 3 4 1014.8 - 0.0 - - - - - - -
17/09:30pm 14.7 WNW 2 3 1014.7 - 0.0 - - - - - - -
17/09:00pm 15.0 W 2 4 1014.6 - 0.0 - - - - - - -
17/08:30pm 15.7 WSW 4 5 1014.3 - 0.0 - - - - - - -
17/08:00pm 15.2 WNW 2 3 1013.9 - 0.0 - - - - - - -
17/07:30pm 15.9 W 3 6 1013.6 - 0.0 - - - - - - -
17/07:00pm 16.6 W 3 4 1013.1 - 0.0 - - - - - - -
17/06:30pm 17.2 W 4 6 1013.0 - 0.0 - - - - - - -
17/06:00pm 17.9 W 6 11 1012.5 - 0.0 - - - - - - -
17/05:30pm 18.6 WSW 8 16 1012.2 - 0.0 - - - - - - -
17/05:00pm 19.0 WSW 7 12 1011.7 - 0.0 - - - - - - -
17/04:30pm 20.0 SW 7 16 1011.2 - 0.0 - - - - - - -
17/04:00pm 20.6 SW 7 12 1010.7 - 0.0 - - - - - - -
17/03:30pm 20.9 SW 6 10 1010.1 - 0.0 - - - - - - -
17/03:00pm 21.0 WSW 7 15 1009.9 - 0.0 - - - - - - -
17/02:30pm 21.1 W 5 10 1009.9 - 0.0 - - - - - - -
17/02:00pm 20.9 WSW 6 12 1009.9 - 0.0 - - - - - - -
17/01:30pm 21.4 W 4 9 1010.3 - 0.0 - - - - - - -
17/01:00pm 21.5 W 5 13 1010.3 - 0.0 - - - - - - -
17/12:30pm 20.6 WSW 4 8 1010.7 - 0.0 - - - - - - -
17/12:00pm 20.0 SW 5 11 1011.0 - 0.0 - - - - - - -
17/11:30am 19.9 WSW 5 10 1011.5 - 0.0 - - - - - - -
17/11:00am 19.6 WSW 6 14 1011.8 - 0.0 - - - - - - -
17/10:30am 19.3 W 6 14 1012.1 - 0.0 - - - - - - -
17/10:00am 18.9 W 7 13 1012.3 - 0.0 - - - - - - -
17/09:30am 18.3 W 10 17 1012.7 - 0.0 - - - - - - -
17/09:00am 17.4 W 7 14 1012.8 - 0.2 - - - - - - -
17/08:30am 17.5 W 6 11 1012.8 - 0.2 - - - - - - -
17/08:00am 16.4 W 6 14 1012.7 - 0.2 - - - - - - -
17/07:30am 16.3 W 4 8 1012.4 - 0.2 - - - - - - -
17/07:00am 15.5 WNW 4 9 1012.2 - 0.2 - - - - - - -
17/06:30am 14.5 WNW 3 4 1011.8 - 0.2 - - - - - - -
17/06:00am 13.8 WNW 3 6 1011.6 - 0.2 - - - - - - -
17/05:30am 13.6 WNW 3 6 1011.1 - 0.2 - - - - - - -
17/05:00am 13.7 WNW 2 4 1010.8 - 0.2 - - - - - - -
17/04:30am 14.2 WNW 3 5 1010.2 - 0.2 - - - - - - -
17/04:00am 14.6 WNW 4 9 1010.2 - 0.2 - - - - - - -
17/03:30am 14.8 WNW 5 9 1009.8 - 0.2 - - - - - - -
17/03:00am 14.9 NW 3 9 1009.6 - 0.2 - - - - - - -
17/02:30am 15.0 WNW 4 10 1009.6 - 0.2 - - - - - - -
17/02:00am 15.1 WNW 4 8 1009.8 - 0.2 - - - - - - -
17/01:30am 15.1 NW 3 6 1009.8 - 0.2 - - - - - - -
17/01:00am 15.5 WNW 4 9 1009.8 - 0.2 - - - - - - -
17/12:30am 15.8 WNW 4 11 1009.9 - 0.2 - - - - - - -
17/12:00am 15.7 W 3 6 1010.2 - 0.2 - - - - - - -
 
Date/Time
EST
Temp

°C
Wind Pressure Rain
since 9am
mm
Weather Cloud Vis
km
Sea
Height
m
Swell
Dir
 
Speed
knots
Gust
knots
hPa Trend Height
m
Period
s
Dir
16/11:30pm 15.9 WNW 4 10 1010.0 - 0.2 - - - - - - -
16/11:00pm 16.3 W 3 6 1010.0 - 0.2 - - - - - - -
16/10:30pm 17.2 W 5 10 1010.3 - 0.2 - - - - - - -
16/10:00pm 17.8 W 6 11 1010.3 - 0.2 - - - - - - -
16/09:30pm 17.8 W 4 8 1010.0 - 0.2 - - - - - - -
16/09:00pm 18.2 W 6 10 1009.8 - 0.2 - - - - - - -
16/08:30pm 18.9 WSW 6 9 1009.4 - 0.2 - - - - - - -
16/08:00pm 19.2 WSW 5 8 1009.1 - 0.2 - - - - - - -
16/07:30pm 19.9 W 5 8 1008.9 - 0.2 - - - - - - -
16/07:00pm 20.5 WNW 6 12 1008.4 - 0.2 - - - - - - -
16/06:30pm 20.3 W 4 8 1007.8 - 0.2 - - - - - - -
16/06:00pm 20.8 W 5 9 1007.3 - 0.2 - - - - - - -
16/05:30pm 21.3 W 6 10 1006.7 - 0.2 - - - - - - -
16/05:00pm 22.1 W 7 14 1006.3 - 0.2 - - - - - - -
16/04:30pm 21.2 W 3 10 1005.8 - 0.2 - - - - - - -
16/04:00pm 20.7 ENE 9 12 1005.4 - 0.2 - - - - - - -
16/03:30pm 20.6 ENE 9 11 1005.4 - 0.2 - - - - - - -
16/03:00pm 20.5 NE 10 17 1005.2 - 0.2 - - - - - - -
16/02:30pm 19.4 NE 17 22 1005.2 - 0.2 - - - - - - -
16/02:00pm 19.8 NE 16 19 1005.6 - 0.2 - - - - - - -
16/01:30pm 20.5 NE 16 18 1006.0 - 0.2 - - - - - - -
16/01:00pm 20.4 NE 14 16 1006.5 - 0.2 - - - - - - -
16/12:30pm 20.6 NE 12 14 1007.2 - 0.2 - - - - - - -
16/12:00pm 20.6 NE 11 13 1007.9 - 0.2 - - - - - - -
16/11:30am 19.7 NE 12 14 1008.6 - 0.2 - - - - - - -
16/11:00am 20.0 NNE 15 17 1009.1 - 0.2 - - - - - - -
16/10:30am 19.6 NNE 15 19 1009.5 - 0.2 - - - - - - -
16/10:00am 18.4 NNE 15 18 1009.6 - 0.2 - - - - - - -
16/09:30am 17.9 NNE 15 18 1010.3 - 0.2 - - - - - - -
16/09:00am 19.5 NNE 16 19 1010.7 - 0.6 - - - - - - -
16/08:30am 19.1 NNE 18 21 1010.7 - 0.6 - - - - - - -
16/08:00am 18.5 NE 20 25 1010.7 - 0.6 - - - - - - -
16/07:30am 18.1 NE 19 23 1011.0 - 0.6 - - - - - - -
16/07:00am 17.1 NE 15 21 1011.1 - 0.6 - - - - - - -
16/06:30am 17.0 NNE 10 12 1012.5 - 0.6 - - - - - - -
16/06:00am 16.6 SSE 4 7 1012.8 - 0.6 - - - - - - -
16/05:30am 16.6 WSW 1 5 1013.1 - 0.6 - - - - - - -
16/05:00am 17.5 NNE 18 21 1012.3 - 0.6 - - - - - - -
16/04:30am 17.5 NNE 21 25 1011.5 - 0.6 - - - - - - -
16/04:00am 17.6 NNE 20 23 1011.4 - 0.6 - - - - - - -
16/03:30am 17.5 NNE 20 24 1011.5 - 0.6 - - - - - - -
16/03:00am 17.3 NE 18 22 1011.7 - 0.6 - - - - - - -
16/02:30am 17.2 NNE 17 21 1012.4 - 0.6 - - - - - - -
16/02:00am 17.1 NNE 18 23 1012.9 - 0.6 - - - - - - -
16/01:30am 16.8 NE 17 21 1013.0 - 0.6 - - - - - - -
16/01:29am 16.8 NE 17 19 1013.0 - 0.6 - - - - - - -
16/01:00am 16.8 NNE 15 17 1015.0 - 0.4 - - - - - - -
16/12:30am 17.2 N 13 16 1015.2 - 0.0 - - - - - - -
16/12:00am 17.6 NNE 18 21 1014.6 - 0.0 - - - - - - -
 
Date/Time
EST
Temp

°C
Wind Pressure Rain
since 9am
mm
Weather Cloud Vis
km
Sea
Height
m
Swell
Dir
 
Speed
knots
Gust
knots
hPa Trend Height
m
Period
s
Dir
15/11:30pm 17.5 NNE 16 19 1015.0 - 0.0 - - - - - - -
15/11:00pm 17.3 NNE 15 18 1015.3 - 0.0 - - - - - - -
15/10:30pm 17.4 NNE 15 18 1015.4 - 0.0 - - - - - - -
15/10:00pm 17.4 NNE 16 18 1015.8 - 0.0 - - - - - - -
15/09:30pm 17.3 NNE 14 16 1016.1 - 0.0 - - - - - - -
15/09:00pm 17.2 NNE 15 17 1015.9 - 0.0 - - - - - - -
15/08:30pm 17.2 NE 14 16 1016.0 - 0.0 - - - - - - -
15/08:00pm 17.0 NE 12 15 1016.1 - 0.0 - - - - - - -
15/07:30pm 16.9 NE 12 15 1015.9 - 0.0 - - - - - - -
15/07:00pm 16.8 NE 12 14 1015.7 - 0.0 - - - - - - -
15/06:30pm 16.9 NE 11 13 1015.5 - 0.0 - - - - - - -
15/06:00pm 16.8 NE 11 12 1015.4 - 0.0 - - - - - - -
15/05:30pm 17.1 ENE 11 13 1015.3 - 0.0 - - - - - - -
15/05:00pm 17.6 ENE 10 12 1015.2 - 0.0 - - - - - - -
15/04:30pm 18.0 ENE 10 12 1015.1 - 0.0 - - - - - - -
15/04:00pm 18.0 E 10 11 1015.2 - 0.0 - - - - - - -
15/03:30pm 18.4 E 10 12 1015.2 - 0.0 - - - - - - -
15/03:00pm 18.6 E 10 11 1015.1 - 0.0 - - - - - - -
15/02:30pm 18.7 E 9 11 1015.2 - 0.0 - - - - - - -
15/02:00pm 19.1 E 8 10 1015.6 - 0.0 - - - - - - -
15/01:30pm 19.1 E 8 11 1015.8 - 0.0 - - - - - - -
15/01:00pm 19.3 E 8 10 1016.0 - 0.0 - - - - - - -
15/12:30pm 19.6 ESE 7 9 1016.4 - 0.0 - - - - - - -
15/12:00pm 19.7 SE 7 8 1016.7 - 0.0 - - - - - - -
15/11:30am 20.0 SE 6 7 1017.1 - 0.0 - - - - - - -
15/11:00am 19.7 SE 5 6 1017.4 - 0.0 - - - - - - -
15/10:30am 19.4 SE 5 7 1017.7 - 0.0 - - - - - - -
15/10:00am 19.9 S 5 6 1018.2 - 0.0 - - - - - - -
15/09:30am 19.8 S 3 5 1018.3 - 0.0 - - - - - - -
15/09:00am 17.6 WSW 2 4 1018.5 - 2.6 - - - - - - -
15/08:30am 16.8 W 5 8 1018.5 - 2.6 - - - - - - -
15/08:00am 16.1 WSW 5 6 1018.4 - 2.6 - - - - - - -
15/07:30am 15.3 W 6 8 1018.4 - 2.6 - - - - - - -
15/07:00am 14.5 W 7 9 1018.2 - 2.6 - - - - - - -
15/06:30am 14.0 W 7 9 1018.0 - 2.6 - - - - - - -
15/06:00am 13.7 W 7 9 1017.7 - 2.6 - - - - - - -
15/05:30am 13.9 W 7 9 1017.6 - 2.6 - - - - - - -
15/05:00am 14.1 W 6 8 1017.5 - 2.6 - - - - - - -
15/04:30am 14.3 W 6 8 1017.5 - 2.6 - - - - - - -
15/04:00am 14.5 WSW 6 8 1017.4 - 2.6 - - - - - - -

Other Formats:

Comma delimited format used in spreadsheet applications
http://www.bom.gov.au/fwo/IDN60701/IDN60701.95770.axf

JavaScript Object Notation format (JSON) in row-major order
http://www.bom.gov.au/fwo/IDN60701/IDN60701.95770.json